sensor_id;sensor_type;location;lat;lon;timestamp;P1;durP1;ratioP1;P2;durP2;ratioP2
68792;SDS011;55778;54.346;10.210;2023-10-31T00:02:13;8.15;;;3.90;;
68792;SDS011;55778;54.346;10.210;2023-10-31T00:04:39;11.48;;;4.47;;
68792;SDS011;55778;54.346;10.210;2023-10-31T00:07:04;9.05;;;3.90;;
68792;SDS011;55778;54.346;10.210;2023-10-31T00:09:30;6.93;;;3.45;;
68792;SDS011;55778;54.346;10.210;2023-10-31T00:11:55;7.45;;;3.85;;
68792;SDS011;55778;54.346;10.210;2023-10-31T00:14:21;8.07;;;3.67;;
68792;SDS011;55778;54.346;10.210;2023-10-31T00:16:46;17.50;;;8.85;;
68792;SDS011;55778;54.346;10.210;2023-10-31T00:19:13;11.50;;;5.07;;
68792;SDS011;55778;54.346;10.210;2023-10-31T00:21:39;11.68;;;4.53;;
68792;SDS011;55778;54.346;10.210;2023-10-31T00:24:04;8.38;;;4.53;;
68792;SDS011;55778;54.346;10.210;2023-10-31T00:26:30;12.80;;;4.57;;
68792;SDS011;55778;54.346;10.210;2023-10-31T00:28:55;11.32;;;4.90;;
68792;SDS011;55778;54.346;10.210;2023-10-31T00:31:21;12.00;;;5.07;;
68792;SDS011;55778;54.346;10.210;2023-10-31T00:33:46;14.52;;;5.03;;
68792;SDS011;55778;54.346;10.210;2023-10-31T00:36:12;12.02;;;5.28;;
68792;SDS011;55778;54.346;10.210;2023-10-31T00:38:38;13.93;;;6.00;;
68792;SDS011;55778;54.346;10.210;2023-10-31T00:41:03;8.82;;;5.32;;
68792;SDS011;55778;54.346;10.210;2023-10-31T00:43:29;11.93;;;4.72;;
68792;SDS011;55778;54.346;10.210;2023-10-31T00:45:54;12.70;;;5.35;;
68792;SDS011;55778;54.346;10.210;2023-10-31T00:48:19;13.23;;;5.30;;
68792;SDS011;55778;54.346;10.210;2023-10-31T00:50:45;9.85;;;5.00;;
68792;SDS011;55778;54.346;10.210;2023-10-31T00:53:10;14.60;;;5.30;;
68792;SDS011;55778;54.346;10.210;2023-10-31T00:55:36;8.88;;;4.68;;
68792;SDS011;55778;54.346;10.210;2023-10-31T00:58:02;8.40;;;4.55;;
68792;SDS011;55778;54.346;10.210;2023-10-31T01:00:28;12.02;;;5.32;;
68792;SDS011;55778;54.346;10.210;2023-10-31T01:02:53;10.30;;;4.80;;
68792;SDS011;55778;54.346;10.210;2023-10-31T01:05:19;13.52;;;7.43;;
68792;SDS011;55778;54.346;10.210;2023-10-31T01:07:44;13.80;;;5.95;;
68792;SDS011;55778;54.346;10.210;2023-10-31T01:10:10;10.05;;;5.07;;
68792;SDS011;55778;54.346;10.210;2023-10-31T01:12:35;9.68;;;4.72;;
68792;SDS011;55778;54.346;10.210;2023-10-31T01:15:01;11.50;;;5.32;;
68792;SDS011;55778;54.346;10.210;2023-10-31T01:17:26;11.07;;;5.57;;
68792;SDS011;55778;54.346;10.210;2023-10-31T01:19:52;13.00;;;5.65;;
68792;SDS011;55778;54.346;10.210;2023-10-31T01:22:17;13.93;;;6.75;;
68792;SDS011;55778;54.346;10.210;2023-10-31T01:24:43;15.60;;;6.50;;
68792;SDS011;55778;54.346;10.210;2023-10-31T01:27:08;14.68;;;6.60;;
68792;SDS011;55778;54.346;10.210;2023-10-31T01:29:34;13.98;;;6.40;;
68792;SDS011;55778;54.346;10.210;2023-10-31T01:31:59;12.27;;;5.85;;
68792;SDS011;55778;54.346;10.210;2023-10-31T01:34:24;11.50;;;6.18;;
68792;SDS011;55778;54.346;10.210;2023-10-31T01:36:50;15.48;;;6.30;;
68792;SDS011;55778;54.346;10.210;2023-10-31T01:39:15;13.40;;;6.05;;
68792;SDS011;55778;54.346;10.210;2023-10-31T01:41:41;13.18;;;6.55;;
68792;SDS011;55778;54.346;10.210;2023-10-31T01:44:08;13.50;;;6.30;;
68792;SDS011;55778;54.346;10.210;2023-10-31T01:46:33;13.68;;;6.38;;
68792;SDS011;55778;54.346;10.210;2023-10-31T01:48:59;12.27;;;6.45;;
68792;SDS011;55778;54.346;10.210;2023-10-31T01:51:25;17.60;;;7.18;;
68792;SDS011;55778;54.346;10.210;2023-10-31T01:53:51;14.50;;;6.70;;
68792;SDS011;55778;54.346;10.210;2023-10-31T01:56:17;13.18;;;6.32;;
68792;SDS011;55778;54.346;10.210;2023-10-31T01:58:44;12.38;;;5.43;;
68792;SDS011;55778;54.346;10.210;2023-10-31T02:01:11;11.60;;;5.90;;
68792;SDS011;55778;54.346;10.210;2023-10-31T02:03:37;13.15;;;6.35;;
68792;SDS011;55778;54.346;10.210;2023-10-31T02:06:03;13.07;;;6.38;;
68792;SDS011;55778;54.346;10.210;2023-10-31T02:08:29;10.20;;;5.45;;
68792;SDS011;55778;54.346;10.210;2023-10-31T02:10:55;12.68;;;5.60;;
68792;SDS011;55778;54.346;10.210;2023-10-31T02:13:20;10.60;;;5.28;;
68792;SDS011;55778;54.346;10.210;2023-10-31T02:15:49;9.50;;;5.35;;
68792;SDS011;55778;54.346;10.210;2023-10-31T02:18:14;11.23;;;5.72;;
68792;SDS011;55778;54.346;10.210;2023-10-31T02:20:40;13.77;;;5.50;;
68792;SDS011;55778;54.346;10.210;2023-10-31T02:23:06;12.95;;;6.07;;
68792;SDS011;55778;54.346;10.210;2023-10-31T02:25:32;12.77;;;5.82;;
68792;SDS011;55778;54.346;10.210;2023-10-31T02:27:57;13.68;;;5.78;;
68792;SDS011;55778;54.346;10.210;2023-10-31T02:30:23;13.20;;;6.30;;
68792;SDS011;55778;54.346;10.210;2023-10-31T02:32:48;12.75;;;6.32;;
68792;SDS011;55778;54.346;10.210;2023-10-31T02:35:15;15.27;;;7.20;;
68792;SDS011;55778;54.346;10.210;2023-10-31T02:37:41;15.23;;;7.55;;
68792;SDS011;55778;54.346;10.210;2023-10-31T02:40:07;16.33;;;7.72;;
68792;SDS011;55778;54.346;10.210;2023-10-31T02:42:33;15.90;;;7.30;;
68792;SDS011;55778;54.346;10.210;2023-10-31T02:44:58;15.75;;;7.18;;
68792;SDS011;55778;54.346;10.210;2023-10-31T02:47:24;13.50;;;7.40;;
68792;SDS011;55778;54.346;10.210;2023-10-31T02:49:49;15.48;;;7.55;;
68792;SDS011;55778;54.346;10.210;2023-10-31T02:52:14;15.68;;;7.45;;
68792;SDS011;55778;54.346;10.210;2023-10-31T02:54:40;16.70;;;8.05;;
68792;SDS011;55778;54.346;10.210;2023-10-31T02:57:05;15.95;;;7.70;;
68792;SDS011;55778;54.346;10.210;2023-10-31T02:59:31;14.25;;;7.88;;
68792;SDS011;55778;54.346;10.210;2023-10-31T03:01:59;18.70;;;8.10;;
68792;SDS011;55778;54.346;10.210;2023-10-31T03:04:25;17.73;;;8.05;;
68792;SDS011;55778;54.346;10.210;2023-10-31T03:06:50;20.55;;;8.80;;
68792;SDS011;55778;54.346;10.210;2023-10-31T03:09:16;22.63;;;8.68;;
68792;SDS011;55778;54.346;10.210;2023-10-31T03:11:41;18.25;;;8.20;;
68792;SDS011;55778;54.346;10.210;2023-10-31T03:14:07;18.55;;;8.65;;
68792;SDS011;55778;54.346;10.210;2023-10-31T03:16:32;18.90;;;7.90;;
68792;SDS011;55778;54.346;10.210;2023-10-31T03:18:58;19.00;;;8.57;;
68792;SDS011;55778;54.346;10.210;2023-10-31T03:21:23;17.42;;;8.23;;
68792;SDS011;55778;54.346;10.210;2023-10-31T03:23:49;18.35;;;8.05;;
68792;SDS011;55778;54.346;10.210;2023-10-31T03:26:16;17.35;;;7.90;;
68792;SDS011;55778;54.346;10.210;2023-10-31T03:28:42;19.55;;;8.77;;
68792;SDS011;55778;54.346;10.210;2023-10-31T03:31:09;16.00;;;7.75;;
68792;SDS011;55778;54.346;10.210;2023-10-31T03:33:35;17.42;;;8.32;;
68792;SDS011;55778;54.346;10.210;2023-10-31T03:36:00;18.13;;;8.43;;
68792;SDS011;55778;54.346;10.210;2023-10-31T03:38:25;16.45;;;7.90;;
68792;SDS011;55778;54.346;10.210;2023-10-31T03:40:51;14.07;;;7.40;;
68792;SDS011;55778;54.346;10.210;2023-10-31T03:43:16;16.55;;;7.90;;
68792;SDS011;55778;54.346;10.210;2023-10-31T03:45:42;18.20;;;8.25;;
68792;SDS011;55778;54.346;10.210;2023-10-31T03:48:07;18.20;;;8.55;;
68792;SDS011;55778;54.346;10.210;2023-10-31T03:50:32;14.80;;;7.60;;
68792;SDS011;55778;54.346;10.210;2023-10-31T03:52:59;17.25;;;7.63;;
68792;SDS011;55778;54.346;10.210;2023-10-31T03:55:24;14.05;;;7.45;;
68792;SDS011;55778;54.346;10.210;2023-10-31T03:57:50;15.77;;;7.60;;
68792;SDS011;55778;54.346;10.210;2023-10-31T04:00:15;17.02;;;8.27;;
68792;SDS011;55778;54.346;10.210;2023-10-31T04:02:41;14.73;;;7.38;;
68792;SDS011;55778;54.346;10.210;2023-10-31T04:05:06;13.00;;;7.43;;
68792;SDS011;55778;54.346;10.210;2023-10-31T04:07:32;14.48;;;7.28;;
68792;SDS011;55778;54.346;10.210;2023-10-31T04:09:57;17.38;;;7.50;;
68792;SDS011;55778;54.346;10.210;2023-10-31T04:12:23;10.98;;;6.15;;
68792;SDS011;55778;54.346;10.210;2023-10-31T04:14:48;13.45;;;6.88;;
68792;SDS011;55778;54.346;10.210;2023-10-31T04:17:14;14.35;;;7.20;;
68792;SDS011;55778;54.346;10.210;2023-10-31T04:19:39;13.93;;;7.28;;
68792;SDS011;55778;54.346;10.210;2023-10-31T04:22:05;12.48;;;6.53;;
68792;SDS011;55778;54.346;10.210;2023-10-31T04:24:30;12.52;;;7.00;;
68792;SDS011;55778;54.346;10.210;2023-10-31T04:26:56;14.15;;;6.68;;
68792;SDS011;55778;54.346;10.210;2023-10-31T04:29:21;12.98;;;6.47;;
68792;SDS011;55778;54.346;10.210;2023-10-31T04:31:47;13.93;;;7.00;;
68792;SDS011;55778;54.346;10.210;2023-10-31T04:34:12;12.57;;;6.60;;
68792;SDS011;55778;54.346;10.210;2023-10-31T04:36:38;13.02;;;6.97;;
68792;SDS011;55778;54.346;10.210;2023-10-31T04:39:04;15.52;;;7.40;;
68792;SDS011;55778;54.346;10.210;2023-10-31T04:41:30;15.27;;;7.97;;
68792;SDS011;55778;54.346;10.210;2023-10-31T04:43:56;13.75;;;7.10;;
68792;SDS011;55778;54.346;10.210;2023-10-31T04:46:21;13.40;;;6.90;;
68792;SDS011;55778;54.346;10.210;2023-10-31T04:48:47;14.07;;;7.78;;
68792;SDS011;55778;54.346;10.210;2023-10-31T04:51:12;13.27;;;6.72;;
68792;SDS011;55778;54.346;10.210;2023-10-31T04:53:37;13.18;;;6.80;;
68792;SDS011;55778;54.346;10.210;2023-10-31T04:56:03;13.25;;;6.68;;
68792;SDS011;55778;54.346;10.210;2023-10-31T04:58:29;14.32;;;7.30;;
68792;SDS011;55778;54.346;10.210;2023-10-31T05:00:54;14.77;;;7.60;;
68792;SDS011;55778;54.346;10.210;2023-10-31T05:03:20;16.10;;;7.55;;
68792;SDS011;55778;54.346;10.210;2023-10-31T05:05:45;15.70;;;7.53;;
68792;SDS011;55778;54.346;10.210;2023-10-31T05:08:11;16.73;;;6.32;;
68792;SDS011;55778;54.346;10.210;2023-10-31T05:10:36;12.38;;;6.70;;
68792;SDS011;55778;54.346;10.210;2023-10-31T05:13:01;15.95;;;6.97;;
68792;SDS011;55778;54.346;10.210;2023-10-31T05:15:27;11.07;;;6.68;;
68792;SDS011;55778;54.346;10.210;2023-10-31T05:17:53;13.48;;;6.90;;
68792;SDS011;55778;54.346;10.210;2023-10-31T05:20:18;13.77;;;6.90;;
68792;SDS011;55778;54.346;10.210;2023-10-31T05:22:44;13.68;;;7.63;;
68792;SDS011;55778;54.346;10.210;2023-10-31T05:25:09;17.05;;;8.20;;
68792;SDS011;55778;54.346;10.210;2023-10-31T05:27:35;15.70;;;7.18;;
68792;SDS011;55778;54.346;10.210;2023-10-31T05:30:00;14.30;;;7.20;;
68792;SDS011;55778;54.346;10.210;2023-10-31T05:32:26;13.00;;;6.88;;
68792;SDS011;55778;54.346;10.210;2023-10-31T05:34:51;14.00;;;7.25;;
68792;SDS011;55778;54.346;10.210;2023-10-31T05:37:16;17.67;;;7.10;;
68792;SDS011;55778;54.346;10.210;2023-10-31T05:39:42;15.80;;;6.63;;
68792;SDS011;55778;54.346;10.210;2023-10-31T05:42:07;21.70;;;7.43;;
68792;SDS011;55778;54.346;10.210;2023-10-31T05:44:33;18.88;;;7.60;;
68792;SDS011;55778;54.346;10.210;2023-10-31T05:46:58;20.08;;;7.90;;
68792;SDS011;55778;54.346;10.210;2023-10-31T05:49:23;23.20;;;9.02;;
68792;SDS011;55778;54.346;10.210;2023-10-31T05:51:49;18.33;;;8.60;;
68792;SDS011;55778;54.346;10.210;2023-10-31T05:54:18;20.77;;;9.20;;
68792;SDS011;55778;54.346;10.210;2023-10-31T05:56:43;19.58;;;8.20;;
68792;SDS011;55778;54.346;10.210;2023-10-31T05:59:10;18.55;;;8.40;;
68792;SDS011;55778;54.346;10.210;2023-10-31T06:01:36;16.95;;;7.95;;
68792;SDS011;55778;54.346;10.210;2023-10-31T06:04:01;14.38;;;6.70;;
68792;SDS011;55778;54.346;10.210;2023-10-31T06:06:27;15.70;;;6.38;;
68792;SDS011;55778;54.346;10.210;2023-10-31T06:08:53;15.65;;;7.40;;
68792;SDS011;55778;54.346;10.210;2023-10-31T06:11:18;22.67;;;10.40;;
68792;SDS011;55778;54.346;10.210;2023-10-31T06:13:44;13.60;;;7.03;;
68792;SDS011;55778;54.346;10.210;2023-10-31T06:16:09;12.18;;;6.63;;
68792;SDS011;55778;54.346;10.210;2023-10-31T06:18:35;12.55;;;5.85;;
68792;SDS011;55778;54.346;10.210;2023-10-31T06:21:02;17.58;;;7.40;;
68792;SDS011;55778;54.346;10.210;2023-10-31T06:23:28;16.15;;;7.95;;
68792;SDS011;55778;54.346;10.210;2023-10-31T06:25:53;17.60;;;7.07;;
68792;SDS011;55778;54.346;10.210;2023-10-31T06:28:18;15.93;;;6.75;;
68792;SDS011;55778;54.346;10.210;2023-10-31T06:30:44;13.50;;;6.80;;
68792;SDS011;55778;54.346;10.210;2023-10-31T06:33:09;14.00;;;6.72;;
68792;SDS011;55778;54.346;10.210;2023-10-31T06:35:35;13.98;;;7.03;;
68792;SDS011;55778;54.346;10.210;2023-10-31T06:38:01;17.95;;;7.18;;
68792;SDS011;55778;54.346;10.210;2023-10-31T06:40:27;17.15;;;6.53;;
68792;SDS011;55778;54.346;10.210;2023-10-31T06:42:52;16.70;;;6.82;;
68792;SDS011;55778;54.346;10.210;2023-10-31T06:45:18;15.70;;;7.15;;
68792;SDS011;55778;54.346;10.210;2023-10-31T06:47:44;16.48;;;6.95;;
68792;SDS011;55778;54.346;10.210;2023-10-31T06:50:12;19.52;;;8.57;;
68792;SDS011;55778;54.346;10.210;2023-10-31T06:52:38;19.92;;;7.78;;
68792;SDS011;55778;54.346;10.210;2023-10-31T06:55:03;18.92;;;7.22;;
68792;SDS011;55778;54.346;10.210;2023-10-31T06:57:29;15.55;;;7.47;;
68792;SDS011;55778;54.346;10.210;2023-10-31T06:59:55;18.08;;;7.20;;
68792;SDS011;55778;54.346;10.210;2023-10-31T07:02:20;12.68;;;6.07;;
68792;SDS011;55778;54.346;10.210;2023-10-31T07:04:46;15.30;;;6.00;;
68792;SDS011;55778;54.346;10.210;2023-10-31T07:07:11;14.00;;;5.95;;
68792;SDS011;55778;54.346;10.210;2023-10-31T07:09:37;19.85;;;9.52;;
68792;SDS011;55778;54.346;10.210;2023-10-31T07:12:02;18.02;;;7.72;;
68792;SDS011;55778;54.346;10.210;2023-10-31T07:14:31;20.92;;;6.35;;
68792;SDS011;55778;54.346;10.210;2023-10-31T07:16:56;11.63;;;5.78;;
68792;SDS011;55778;54.346;10.210;2023-10-31T07:19:24;15.75;;;5.40;;
68792;SDS011;55778;54.346;10.210;2023-10-31T07:21:50;15.43;;;5.50;;
68792;SDS011;55778;54.346;10.210;2023-10-31T07:24:15;10.23;;;4.95;;
68792;SDS011;55778;54.346;10.210;2023-10-31T07:26:40;17.00;;;5.75;;
68792;SDS011;55778;54.346;10.210;2023-10-31T07:29:06;11.82;;;5.43;;
68792;SDS011;55778;54.346;10.210;2023-10-31T07:31:31;14.88;;;6.03;;
68792;SDS011;55778;54.346;10.210;2023-10-31T07:33:57;12.43;;;5.88;;
68792;SDS011;55778;54.346;10.210;2023-10-31T07:36:23;19.30;;;6.85;;
68792;SDS011;55778;54.346;10.210;2023-10-31T07:38:48;13.73;;;5.40;;
68792;SDS011;55778;54.346;10.210;2023-10-31T07:41:14;15.07;;;5.97;;
68792;SDS011;55778;54.346;10.210;2023-10-31T07:43:40;16.05;;;6.35;;
68792;SDS011;55778;54.346;10.210;2023-10-31T07:46:08;11.50;;;5.60;;
68792;SDS011;55778;54.346;10.210;2023-10-31T07:48:33;17.13;;;6.47;;
68792;SDS011;55778;54.346;10.210;2023-10-31T07:50:58;12.93;;;5.63;;
68792;SDS011;55778;54.346;10.210;2023-10-31T07:53:24;11.60;;;5.45;;
68792;SDS011;55778;54.346;10.210;2023-10-31T07:55:49;11.20;;;4.80;;
68792;SDS011;55778;54.346;10.210;2023-10-31T07:58:15;12.20;;;5.45;;
68792;SDS011;55778;54.346;10.210;2023-10-31T08:00:40;8.93;;;4.43;;
68792;SDS011;55778;54.346;10.210;2023-10-31T08:03:06;7.00;;;3.47;;
68792;SDS011;55778;54.346;10.210;2023-10-31T08:05:33;8.95;;;3.63;;
68792;SDS011;55778;54.346;10.210;2023-10-31T08:07:59;3.90;;;2.42;;
68792;SDS011;55778;54.346;10.210;2023-10-31T08:10:24;3.42;;;2.17;;
68792;SDS011;55778;54.346;10.210;2023-10-31T08:12:50;2.63;;;1.80;;
68792;SDS011;55778;54.346;10.210;2023-10-31T08:15:15;2.47;;;1.50;;
68792;SDS011;55778;54.346;10.210;2023-10-31T08:17:41;1.80;;;0.90;;
68792;SDS011;55778;54.346;10.210;2023-10-31T08:20:07;2.58;;;0.80;;
68792;SDS011;55778;54.346;10.210;2023-10-31T08:22:34;2.35;;;0.80;;
68792;SDS011;55778;54.346;10.210;2023-10-31T08:24:59;1.15;;;0.70;;
68792;SDS011;55778;54.346;10.210;2023-10-31T08:27:27;4.75;;;2.70;;
68792;SDS011;55778;54.346;10.210;2023-10-31T08:29:52;2.63;;;1.02;;
68792;SDS011;55778;54.346;10.210;2023-10-31T08:32:18;3.42;;;0.90;;
68792;SDS011;55778;54.346;10.210;2023-10-31T08:34:43;4.90;;;1.00;;
68792;SDS011;55778;54.346;10.210;2023-10-31T08:37:08;4.13;;;1.00;;
68792;SDS011;55778;54.346;10.210;2023-10-31T08:39:34;4.50;;;1.23;;
68792;SDS011;55778;54.346;10.210;2023-10-31T08:41:59;7.65;;;1.75;;
68792;SDS011;55778;54.346;10.210;2023-10-31T08:44:25;6.07;;;1.40;;
68792;SDS011;55778;54.346;10.210;2023-10-31T08:46:50;5.97;;;2.22;;
68792;SDS011;55778;54.346;10.210;2023-10-31T08:49:16;3.85;;;1.60;;
68792;SDS011;55778;54.346;10.210;2023-10-31T08:51:42;5.10;;;1.25;;
68792;SDS011;55778;54.346;10.210;2023-10-31T08:54:07;6.25;;;1.27;;
68792;SDS011;55778;54.346;10.210;2023-10-31T08:56:34;5.25;;;1.30;;
68792;SDS011;55778;54.346;10.210;2023-10-31T08:58:59;5.65;;;1.40;;
68792;SDS011;55778;54.346;10.210;2023-10-31T09:01:25;8.90;;;2.00;;
68792;SDS011;55778;54.346;10.210;2023-10-31T09:03:51;2.53;;;1.30;;
68792;SDS011;55778;54.346;10.210;2023-10-31T09:06:17;4.25;;;1.30;;
68792;SDS011;55778;54.346;10.210;2023-10-31T09:08:45;3.47;;;1.20;;
68792;SDS011;55778;54.346;10.210;2023-10-31T09:11:10;2.80;;;1.05;;
68792;SDS011;55778;54.346;10.210;2023-10-31T09:13:36;2.70;;;1.00;;
68792;SDS011;55778;54.346;10.210;2023-10-31T09:16:01;5.50;;;1.00;;
68792;SDS011;55778;54.346;10.210;2023-10-31T09:18:27;3.28;;;1.48;;
68792;SDS011;55778;54.346;10.210;2023-10-31T09:20:52;2.45;;;0.98;;
68792;SDS011;55778;54.346;10.210;2023-10-31T09:23:18;1.58;;;0.60;;
68792;SDS011;55778;54.346;10.210;2023-10-31T09:25:44;1.80;;;0.80;;
68792;SDS011;55778;54.346;10.210;2023-10-31T09:28:09;3.05;;;0.70;;
68792;SDS011;55778;54.346;10.210;2023-10-31T09:30:35;2.53;;;0.90;;
68792;SDS011;55778;54.346;10.210;2023-10-31T09:33:01;2.60;;;0.73;;
68792;SDS011;55778;54.346;10.210;2023-10-31T09:35:26;2.20;;;1.17;;
68792;SDS011;55778;54.346;10.210;2023-10-31T09:37:52;2.97;;;1.05;;
68792;SDS011;55778;54.346;10.210;2023-10-31T09:40:18;3.72;;;0.90;;
68792;SDS011;55778;54.346;10.210;2023-10-31T09:42:44;3.95;;;1.00;;
68792;SDS011;55778;54.346;10.210;2023-10-31T09:45:13;4.30;;;1.10;;
68792;SDS011;55778;54.346;10.210;2023-10-31T09:47:39;3.95;;;0.65;;
68792;SDS011;55778;54.346;10.210;2023-10-31T09:50:06;5.38;;;1.25;;
68792;SDS011;55778;54.346;10.210;2023-10-31T09:52:36;2.35;;;0.90;;
68792;SDS011;55778;54.346;10.210;2023-10-31T09:55:02;2.63;;;0.60;;
68792;SDS011;55778;54.346;10.210;2023-10-31T09:57:28;1.35;;;0.70;;
68792;SDS011;55778;54.346;10.210;2023-10-31T09:59:54;2.63;;;0.80;;
68792;SDS011;55778;54.346;10.210;2023-10-31T10:02:19;2.08;;;0.57;;
68792;SDS011;55778;54.346;10.210;2023-10-31T10:04:45;3.67;;;1.20;;
68792;SDS011;55778;54.346;10.210;2023-10-31T10:07:15;1.55;;;0.47;;
68792;SDS011;55778;54.346;10.210;2023-10-31T10:09:42;3.50;;;1.65;;
68792;SDS011;55778;54.346;10.210;2023-10-31T10:12:08;1.83;;;0.85;;
68792;SDS011;55778;54.346;10.210;2023-10-31T10:14:37;0.68;;;0.40;;
68792;SDS011;55778;54.346;10.210;2023-10-31T10:17:13;3.72;;;0.70;;
68792;SDS011;55778;54.346;10.210;2023-10-31T10:19:42;2.30;;;0.50;;
68792;SDS011;55778;54.346;10.210;2023-10-31T10:22:08;1.45;;;0.93;;
68792;SDS011;55778;54.346;10.210;2023-10-31T10:24:35;0.88;;;0.40;;
68792;SDS011;55778;54.346;10.210;2023-10-31T10:27:00;1.02;;;0.40;;
68792;SDS011;55778;54.346;10.210;2023-10-31T10:29:26;0.52;;;0.50;;
68792;SDS011;55778;54.346;10.210;2023-10-31T10:31:51;1.40;;;0.80;;
68792;SDS011;55778;54.346;10.210;2023-10-31T10:34:17;0.52;;;0.40;;
68792;SDS011;55778;54.346;10.210;2023-10-31T10:36:46;2.13;;;1.40;;
68792;SDS011;55778;54.346;10.210;2023-10-31T10:39:20;2.53;;;1.00;;
68792;SDS011;55778;54.346;10.210;2023-10-31T10:41:50;1.30;;;0.73;;
68792;SDS011;55778;54.346;10.210;2023-10-31T10:44:19;1.08;;;0.70;;
68792;SDS011;55778;54.346;10.210;2023-10-31T10:46:46;3.20;;;0.80;;
68792;SDS011;55778;54.346;10.210;2023-10-31T10:49:19;1.80;;;1.05;;
68792;SDS011;55778;54.346;10.210;2023-10-31T10:51:52;3.50;;;1.02;;
68792;SDS011;55778;54.346;10.210;2023-10-31T10:57:37;1.98;;;0.75;;
68792;SDS011;55778;54.346;10.210;2023-10-31T11:00:05;0.80;;;0.50;;
68792;SDS011;55778;54.346;10.210;2023-10-31T11:02:34;1.20;;;0.70;;
68792;SDS011;55778;54.346;10.210;2023-10-31T11:05:01;2.40;;;0.70;;
68792;SDS011;55778;54.346;10.210;2023-10-31T11:07:32;0.82;;;0.70;;
68792;SDS011;55778;54.346;10.210;2023-10-31T11:09:59;2.67;;;1.17;;
68792;SDS011;55778;54.346;10.210;2023-10-31T11:12:27;1.75;;;0.80;;
68792;SDS011;55778;54.346;10.210;2023-10-31T11:14:55;1.17;;;0.60;;
68792;SDS011;55778;54.346;10.210;2023-10-31T11:19:51;1.65;;;0.98;;
68792;SDS011;55778;54.346;10.210;2023-10-31T11:22:18;2.47;;;1.17;;
68792;SDS011;55778;54.346;10.210;2023-10-31T11:24:44;2.38;;;0.70;;
68792;SDS011;55778;54.346;10.210;2023-10-31T11:27:09;4.53;;;1.20;;
68792;SDS011;55778;54.346;10.210;2023-10-31T11:29:35;4.50;;;1.02;;
68792;SDS011;55778;54.346;10.210;2023-10-31T11:32:01;1.77;;;0.82;;
68792;SDS011;55778;54.346;10.210;2023-10-31T11:34:28;3.30;;;0.90;;
68792;SDS011;55778;54.346;10.210;2023-10-31T11:37:17;4.45;;;1.27;;
68792;SDS011;55778;54.346;10.210;2023-10-31T11:39:51;5.73;;;1.67;;
68792;SDS011;55778;54.346;10.210;2023-10-31T11:42:38;2.47;;;0.80;;
68792;SDS011;55778;54.346;10.210;2023-10-31T11:45:03;2.83;;;0.90;;
68792;SDS011;55778;54.346;10.210;2023-10-31T11:47:47;8.85;;;1.10;;
68792;SDS011;55778;54.346;10.210;2023-10-31T11:50:14;2.08;;;0.80;;
68792;SDS011;55778;54.346;10.210;2023-10-31T11:52:40;2.60;;;1.00;;
68792;SDS011;55778;54.346;10.210;2023-10-31T11:55:09;3.47;;;1.70;;
68792;SDS011;55778;54.346;10.210;2023-10-31T11:57:35;35.72;;;14.20;;
68792;SDS011;55778;54.346;10.210;2023-10-31T12:00:01;3.63;;;1.55;;
68792;SDS011;55778;54.346;10.210;2023-10-31T12:02:28;3.20;;;1.52;;
68792;SDS011;55778;54.346;10.210;2023-10-31T12:05:09;6.72;;;3.65;;
68792;SDS011;55778;54.346;10.210;2023-10-31T12:07:43;5.03;;;2.10;;
68792;SDS011;55778;54.346;10.210;2023-10-31T12:10:09;8.35;;;3.80;;
68792;SDS011;55778;54.346;10.210;2023-10-31T12:12:35;4.43;;;1.90;;
68792;SDS011;55778;54.346;10.210;2023-10-31T12:15:07;3.38;;;0.70;;
68792;SDS011;55778;54.346;10.210;2023-10-31T12:17:33;7.03;;;2.67;;
68792;SDS011;55778;54.346;10.210;2023-10-31T12:20:03;2.72;;;1.45;;
68792;SDS011;55778;54.346;10.210;2023-10-31T12:22:29;1.52;;;1.10;;
68792;SDS011;55778;54.346;10.210;2023-10-31T12:25:05;4.10;;;1.33;;
68792;SDS011;55778;54.346;10.210;2023-10-31T12:27:42;3.45;;;1.10;;
68792;SDS011;55778;54.346;10.210;2023-10-31T12:30:09;3.13;;;1.40;;
68792;SDS011;55778;54.346;10.210;2023-10-31T12:32:35;2.40;;;1.45;;
68792;SDS011;55778;54.346;10.210;2023-10-31T12:35:01;4.38;;;2.90;;
68792;SDS011;55778;54.346;10.210;2023-10-31T12:37:27;3.53;;;2.65;;
68792;SDS011;55778;54.346;10.210;2023-10-31T12:39:53;1.00;;;0.73;;
68792;SDS011;55778;54.346;10.210;2023-10-31T12:42:18;2.00;;;1.35;;
68792;SDS011;55778;54.346;10.210;2023-10-31T12:44:45;1.50;;;0.80;;
68792;SDS011;55778;54.346;10.210;2023-10-31T12:47:20;2.40;;;1.45;;
68792;SDS011;55778;54.346;10.210;2023-10-31T12:49:46;1.73;;;1.25;;
68792;SDS011;55778;54.346;10.210;2023-10-31T12:52:12;1.80;;;1.20;;
68792;SDS011;55778;54.346;10.210;2023-10-31T12:54:37;4.50;;;2.70;;
68792;SDS011;55778;54.346;10.210;2023-10-31T12:57:03;4.88;;;3.25;;
68792;SDS011;55778;54.346;10.210;2023-10-31T12:59:31;3.78;;;2.70;;
68792;SDS011;55778;54.346;10.210;2023-10-31T13:01:57;1.63;;;1.00;;
68792;SDS011;55778;54.346;10.210;2023-10-31T13:04:32;2.40;;;1.60;;
68792;SDS011;55778;54.346;10.210;2023-10-31T13:06:59;3.22;;;1.48;;
68792;SDS011;55778;54.346;10.210;2023-10-31T13:09:29;2.70;;;1.90;;
68792;SDS011;55778;54.346;10.210;2023-10-31T13:12:01;3.50;;;2.42;;
68792;SDS011;55778;54.346;10.210;2023-10-31T13:14:30;2.50;;;1.45;;
68792;SDS011;55778;54.346;10.210;2023-10-31T13:16:56;6.32;;;2.15;;
68792;SDS011;55778;54.346;10.210;2023-10-31T13:19:21;2.95;;;1.55;;
68792;SDS011;55778;54.346;10.210;2023-10-31T13:21:47;1.73;;;1.33;;
68792;SDS011;55778;54.346;10.210;2023-10-31T13:24:13;3.33;;;2.20;;
68792;SDS011;55778;54.346;10.210;2023-10-31T13:26:38;13.43;;;5.10;;
68792;SDS011;55778;54.346;10.210;2023-10-31T13:29:04;16.38;;;9.45;;
68792;SDS011;55778;54.346;10.210;2023-10-31T13:31:29;3.72;;;2.35;;
68792;SDS011;55778;54.346;10.210;2023-10-31T13:33:55;4.32;;;1.85;;
68792;SDS011;55778;54.346;10.210;2023-10-31T13:36:20;3.10;;;1.60;;
68792;SDS011;55778;54.346;10.210;2023-10-31T13:38:45;4.50;;;2.47;;
68792;SDS011;55778;54.346;10.210;2023-10-31T13:41:11;2.80;;;1.90;;
68792;SDS011;55778;54.346;10.210;2023-10-31T13:43:37;2.65;;;1.67;;
68792;SDS011;55778;54.346;10.210;2023-10-31T13:46:03;4.30;;;2.20;;
68792;SDS011;55778;54.346;10.210;2023-10-31T13:48:28;5.03;;;2.75;;
68792;SDS011;55778;54.346;10.210;2023-10-31T13:50:54;3.55;;;2.35;;
68792;SDS011;55778;54.346;10.210;2023-10-31T13:53:19;3.63;;;2.42;;
68792;SDS011;55778;54.346;10.210;2023-10-31T13:55:44;3.78;;;2.38;;
68792;SDS011;55778;54.346;10.210;2023-10-31T13:58:11;3.83;;;2.13;;
68792;SDS011;55778;54.346;10.210;2023-10-31T14:00:36;3.72;;;2.33;;
68792;SDS011;55778;54.346;10.210;2023-10-31T14:03:01;3.42;;;2.20;;
68792;SDS011;55778;54.346;10.210;2023-10-31T14:05:27;4.25;;;2.40;;
68792;SDS011;55778;54.346;10.210;2023-10-31T14:07:52;4.45;;;2.40;;
68792;SDS011;55778;54.346;10.210;2023-10-31T14:10:19;4.95;;;2.90;;
68792;SDS011;55778;54.346;10.210;2023-10-31T14:12:45;4.45;;;2.55;;
68792;SDS011;55778;54.346;10.210;2023-10-31T14:15:11;4.53;;;2.50;;
68792;SDS011;55778;54.346;10.210;2023-10-31T14:17:37;4.03;;;2.47;;
68792;SDS011;55778;54.346;10.210;2023-10-31T14:20:02;5.00;;;2.92;;
68792;SDS011;55778;54.346;10.210;2023-10-31T14:22:29;6.25;;;3.20;;
68792;SDS011;55778;54.346;10.210;2023-10-31T14:24:54;11.30;;;4.40;;
68792;SDS011;55778;54.346;10.210;2023-10-31T14:27:20;5.95;;;2.70;;
68792;SDS011;55778;54.346;10.210;2023-10-31T14:29:45;9.15;;;3.90;;